Silverton, CO

8:22 PM MDT on August 20, 2014 (GMT -0600)
Telluride Regional | Change Station
CLOSE
Current Station
Airport
Location: Telluride,
Elevation: 9078 ft
Nearby Weather Stations

Elev 9078 ft 37.95 °N, 107.91 °W | Updated 5 minutes ago

Clear
Clear
61 °F
Feels Like 61 °F
N
5
Wind Variable Wind from WNW

Today
High -- | Low -- °F
--% Chance of Precip.
Yesterday
High -- | Low -- °F
Precip. -- in
6:30 AM 7:56 PM
Waning Crescent, 17% visible
Pressure 30.30 in
Visibility 10.0 miles
Clouds Clear
Dew Point 39 °F
Humidity 45%
Rainfall 0.03 in
Snow Depth 0 in
UV 0 out of 12
Pollen 5.60 out of 12
Air Quality Not available.
Flu Activity Not available.
METAR KTEX 210217Z AUTO 29004KT 10SM CLR 16/04 A3030 RMK AO2 LTG DSNT NW

More Conditions Fewer Conditions

Pressure 30.30 in
Visibility 10.0 miles
Clouds Clear
Dew Point 39 °F
Humidity 45%
Rainfall 0.03 in
Snow Depth 0 in
UV 0 out of 12
Pollen 5.60 out of 12
Air Quality Not available.
Flu Activity Not available.
METAR KTEX 210217Z AUTO 29004KT 10SM CLR 16/04 A3030 RMK AO2 LTG DSNT NW

More Conditions Fewer Conditions

10-Day Weather Forecast

Almanac

Astronomy

Aug. 20, 2014 Rise Set
Actual Time 6:30 AM MDT 7:56 PM MDT
Civil Twilight 6:02 AM MDT 8:24 PM MDT
Nautical Twilight 5:29 AM MDT 8:57 PM MDT
Astronomical Twilight 4:54 AM MDT 9:32 PM MDT
Moon 2:14 AM MDT (8/20) 4:42 PM MDT (8/20)
Length of Visible Light 14h 21m
Length of Day
13h 26m
Tomorrow will be 2m 14s shorter.
Waning Crescent, 17% of the Moon is Illuminated
Today
Waning Crescent
Aug 25
New
Sep 2
First Quarter
Sep 8
Full
Sep 15
Last Quarter

Today's Extremes

State Highs State Lows

Community

WunderPhotos

Upload Photos

1,745,851 photos uploaded!

WunderBlogs® & News

By Dr. Jeff Masters
Director of Meteorology, Weather Underground
By Kari Strenfel
Meteorologist, Weather Underground
By Christopher C. Burt
Weather Historian, Weather Underground
August 20, 2014
August 20, 2014
August 20, 2014

Nearby

Snow Depth

Station Depth Elevation
El Diente Peak 0 in 10200 ft
Vallecito 0 in 10880 ft
Lone Cone 9 in 9600 ft
Upper San Juan 0 in 10130 ft
Mesa Lakes 0 in 10000 ft

Earthquake Activity

City Distance Mag. Time & Date
No recent earthquake activity has been reported nearby.
Minimum magnitude displayed is 2.5.

Coastal Water Temperatures

Place Temperature
No Stations Reporting

Nearby Weather Stations